createdAt,value
2022-08-19T00:01:59.067Z,100145.77
2022-08-19T00:04:36.022Z,100139.00
2022-08-19T00:07:06.412Z,100138.25
2022-08-19T00:09:34.628Z,100138.44
2022-08-19T00:12:02.483Z,100139.75
2022-08-19T00:14:32.544Z,100135.86
2022-08-19T00:17:03.589Z,100138.80
2022-08-19T00:19:32.009Z,100141.08
2022-08-19T00:22:00.239Z,100143.70
2022-08-19T00:24:28.337Z,100141.68
2022-08-19T00:26:57.982Z,100144.65
2022-08-19T00:29:45.899Z,100142.86
2022-08-19T00:32:21.503Z,100143.83
2022-08-19T00:34:49.211Z,100140.58
2022-08-19T00:37:16.942Z,100142.50
2022-08-19T00:39:44.659Z,100141.86
2022-08-19T00:42:15.673Z,100143.46
2022-08-19T00:44:44.271Z,100143.68
2022-08-19T00:47:14.154Z,100145.21
2022-08-19T00:49:51.753Z,100148.03
2022-08-19T00:52:30.763Z,100148.61
2022-08-19T00:54:59.894Z,100149.35
2022-08-19T00:57:33.490Z,100148.73
2022-08-19T01:00:03.282Z,100151.75
2022-08-19T01:02:33.688Z,100150.95
2022-08-19T01:05:06.057Z,100151.17
2022-08-19T01:07:38.304Z,100144.69
2022-08-19T01:10:09.732Z,100142.46
2022-08-19T01:12:39.107Z,100137.87
2022-08-19T01:15:10.085Z,100137.79
2022-08-19T01:17:40.607Z,100142.70
2022-08-19T01:20:17.647Z,100141.30
2022-08-19T01:22:49.584Z,100141.86
2022-08-19T01:25:21.304Z,100139.80
2022-08-19T01:27:53.369Z,100138.94
2022-08-19T01:30:33.208Z,100142.42
2022-08-19T01:33:01.661Z,100144.56
2022-08-19T01:35:32.501Z,100144.75
2022-08-19T01:38:03.661Z,100141.82
2022-08-19T01:40:34.181Z,100140.14
2022-08-19T01:43:04.090Z,100138.11
2022-08-19T01:45:35.730Z,100133.67
2022-08-19T01:48:04.770Z,100127.86
2022-08-19T01:50:35.024Z,100128.75
2022-08-19T01:53:07.597Z,100125.70
2022-08-19T01:55:41.076Z,100125.40
2022-08-19T01:58:14.341Z,100127.20
2022-08-19T02:00:44.853Z,100125.72
2022-08-19T02:03:13.089Z,100120.57
2022-08-19T02:05:41.537Z,100122.56
2022-08-19T02:08:09.966Z,100118.80
2022-08-19T02:10:43.408Z,100116.23
2022-08-19T02:13:13.156Z,100122.42
2022-08-19T02:15:41.383Z,100124.73
2022-08-19T02:18:09.629Z,100121.47
2022-08-19T02:20:39.665Z,100121.29
2022-08-19T02:23:13.368Z,100120.77
2022-08-19T02:25:42.997Z,100118.21
2022-08-19T02:28:15.523Z,100118.64
2022-08-19T02:30:47.557Z,100116.10
2022-08-19T02:33:16.150Z,100116.50
2022-08-19T02:35:45.077Z,100112.73
2022-08-19T02:38:28.439Z,100112.91
2022-08-19T02:41:03.345Z,100110.41
2022-08-19T02:43:36.761Z,100104.46
2022-08-19T02:46:22.226Z,100104.70
2022-08-19T02:48:51.460Z,100104.73
2022-08-19T02:51:23.621Z,100105.17
2022-08-19T02:53:51.366Z,100109.18
2022-08-19T02:56:20.035Z,100111.23
2022-08-19T02:58:49.233Z,100113.80
2022-08-19T03:01:23.620Z,100114.73
2022-08-19T03:03:52.174Z,100115.27
2022-08-19T03:06:20.646Z,100115.53
2022-08-19T03:08:50.477Z,100116.12
2022-08-19T03:11:27.866Z,100115.31
2022-08-19T03:13:55.882Z,100114.70
2022-08-19T03:16:25.950Z,100118.21
2022-08-19T03:18:54.862Z,100120.95
2022-08-19T03:21:25.982Z,100124.00
2022-08-19T03:23:58.758Z,100121.38
2022-08-19T03:26:27.635Z,100120.38
2022-08-19T03:28:58.024Z,100122.48
2022-08-19T03:31:44.643Z,100121.18
2022-08-19T03:34:20.245Z,100122.98
2022-08-19T03:36:48.970Z,100122.98
2022-08-19T03:39:18.108Z,100127.30
2022-08-19T03:41:48.613Z,100128.50
2022-08-19T03:44:20.688Z,100128.17
2022-08-19T03:46:52.803Z,100131.14
2022-08-19T03:49:21.472Z,100134.26
2022-08-19T03:51:57.763Z,100128.88
2022-08-19T03:54:27.143Z,100129.39
2022-08-19T03:56:56.566Z,100128.80
2022-08-19T03:59:31.756Z,100127.02
2022-08-19T04:02:02.695Z,100127.44
2022-08-19T04:04:31.833Z,100123.08
2022-08-19T04:06:59.926Z,100126.63
2022-08-19T04:09:28.078Z,100124.77
2022-08-19T04:11:58.588Z,100119.32
2022-08-19T04:14:33.229Z,100117.86
2022-08-19T04:17:03.041Z,100120.70
2022-08-19T04:19:31.888Z,100124.39
2022-08-19T04:22:00.116Z,100125.45
2022-08-19T04:24:27.845Z,100129.08
2022-08-19T04:26:55.789Z,100125.45
2022-08-19T04:29:26.422Z,100127.89
2022-08-19T04:31:56.966Z,100127.91
2022-08-19T04:34:26.885Z,100130.91
2022-08-19T04:36:57.338Z,100130.98
2022-08-19T04:39:49.693Z,100133.57
2022-08-19T04:42:37.591Z,100134.45
2022-08-19T04:45:12.485Z,100130.80
2022-08-19T04:47:48.149Z,100130.67
2022-08-19T04:50:27.794Z,100130.61
2022-08-19T04:52:56.642Z,100128.53
2022-08-19T04:55:26.860Z,100128.72
2022-08-19T04:57:55.692Z,100126.89
2022-08-19T05:00:24.096Z,100131.88
2022-08-19T05:02:52.179Z,100138.69
2022-08-19T05:05:20.777Z,100144.90
2022-08-19T05:07:48.627Z,100149.02
2022-08-19T05:10:16.547Z,100146.08
2022-08-19T05:12:44.257Z,100146.05
2022-08-19T05:15:12.245Z,100143.27
2022-08-19T05:17:59.923Z,100144.27
2022-08-19T05:20:46.357Z,100142.34
2022-08-19T05:23:20.513Z,100135.33
2022-08-19T05:25:51.620Z,100133.77
2022-08-19T05:28:21.410Z,100131.52
2022-08-19T05:30:51.571Z,100132.39
2022-08-19T05:33:19.922Z,100136.15
2022-08-19T05:35:49.454Z,100147.13
2022-08-19T05:38:19.166Z,100147.04
2022-08-19T05:40:48.128Z,100144.52
2022-08-19T05:43:17.045Z,100147.19
2022-08-19T05:45:45.060Z,100141.11
2022-08-19T05:48:13.869Z,100133.09
2022-08-19T05:50:43.018Z,100122.73
2022-08-19T05:53:11.017Z,100120.02
2022-08-19T05:55:39.818Z,100119.83
2022-08-19T05:58:10.634Z,100124.93
2022-08-19T06:00:39.083Z,100131.38
2022-08-19T06:03:09.738Z,100138.13
2022-08-19T06:05:48.343Z,100139.02
2022-08-19T06:08:34.459Z,100134.63
2022-08-19T06:11:15.292Z,100130.96
2022-08-19T06:13:44.165Z,100141.41
2022-08-19T06:16:11.867Z,100152.20
2022-08-19T06:18:39.673Z,100156.09
2022-08-19T06:21:07.363Z,100158.31
2022-08-19T06:23:36.312Z,100159.69
2022-08-19T06:26:04.165Z,100163.98
2022-08-19T06:28:31.898Z,100165.66
2022-08-19T06:30:59.763Z,100162.76
2022-08-19T06:33:27.465Z,100163.30
2022-08-19T06:35:55.804Z,100157.59
2022-08-19T06:38:24.651Z,100147.20
2022-08-19T06:40:52.339Z,100144.56
2022-08-19T06:43:20.139Z,100143.52
2022-08-19T06:45:49.380Z,100142.29
2022-08-19T06:48:17.259Z,100141.12
2022-08-19T06:50:46.063Z,100140.80
2022-08-19T06:53:14.002Z,100143.15
2022-08-19T06:55:42.510Z,100148.06
2022-08-19T06:58:10.418Z,100148.48
2022-08-19T07:00:38.747Z,100148.52
2022-08-19T07:03:08.741Z,100151.40
2022-08-19T07:05:45.750Z,100152.56
2022-08-19T07:08:14.833Z,100147.40
2022-08-19T07:10:47.115Z,100142.37
2022-08-19T07:13:15.043Z,100137.36
2022-08-19T07:15:43.302Z,100139.25
2022-08-19T07:18:11.596Z,100137.75
2022-08-19T07:20:42.085Z,100140.73
2022-08-19T07:23:16.231Z,100142.88
2022-08-19T07:25:44.724Z,100136.52
2022-08-19T07:28:24.209Z,100128.57
2022-08-19T07:30:53.738Z,100127.44
2022-08-19T07:33:21.713Z,100129.02
2022-08-19T07:35:50.042Z,100130.70
2022-08-19T07:38:17.868Z,100131.77
2022-08-19T07:40:47.322Z,100134.86
2022-08-19T07:43:17.077Z,100140.92
2022-08-19T07:45:48.035Z,100143.40
2022-08-19T07:48:15.979Z,100141.55
2022-08-19T07:50:44.044Z,100137.58
2022-08-19T07:53:13.515Z,100134.92
2022-08-19T07:55:43.881Z,100136.19
2022-08-19T07:58:15.520Z,100136.14
2022-08-19T08:00:44.603Z,100133.37
2022-08-19T08:03:12.711Z,100124.21
2022-08-19T08:05:59.632Z,100124.70
2022-08-19T08:08:36.683Z,100123.53
2022-08-19T08:11:05.866Z,100126.62
2022-08-19T08:13:36.387Z,100127.04
2022-08-19T08:16:10.291Z,100125.48
2022-08-19T08:18:50.294Z,100124.57
2022-08-19T08:21:18.923Z,100133.14
2022-08-19T08:23:46.656Z,100140.31
2022-08-19T08:26:16.095Z,100150.34
2022-08-19T08:28:47.999Z,100150.61
2022-08-19T08:31:17.736Z,100149.95
2022-08-19T08:33:46.792Z,100146.27
2022-08-19T08:36:16.026Z,100144.38
2022-08-19T08:38:48.214Z,100145.11
2022-08-19T08:41:37.924Z,100147.16
2022-08-19T08:44:05.769Z,100141.58
2022-08-19T08:47:01.251Z,100138.50
2022-08-19T08:49:43.584Z,100136.56
2022-08-19T08:52:18.536Z,100136.42
2022-08-19T08:54:54.818Z,100138.43
2022-08-19T08:58:05.211Z,100144.28
2022-08-19T09:00:43.913Z,100154.75
2022-08-19T09:03:20.350Z,100161.35
2022-08-19T09:06:38.311Z,100167.98
2022-08-19T09:09:19.947Z,100170.05
2022-08-19T09:12:32.627Z,100176.13
2022-08-19T09:15:09.063Z,100176.68
2022-08-19T09:17:39.380Z,100174.14
2022-08-19T09:20:18.912Z,100179.05
2022-08-19T09:22:47.649Z,100179.08
2022-08-19T09:25:24.563Z,100176.38
2022-08-19T09:28:02.694Z,100177.85
2022-08-19T09:30:34.457Z,100185.17
2022-08-19T09:33:02.203Z,100181.61
2022-08-19T09:35:30.945Z,100178.59
2022-08-19T09:38:00.119Z,100176.02
2022-08-19T09:40:30.571Z,100175.80
2022-08-19T09:43:02.784Z,100171.25
2022-08-19T09:45:37.904Z,100171.95
2022-08-19T09:48:05.892Z,100173.64
2022-08-19T09:50:36.103Z,100174.86
2022-08-19T09:53:03.874Z,100177.22
2022-08-19T09:55:34.607Z,100174.55
2022-08-19T09:58:03.034Z,100175.63
2022-08-19T10:00:31.995Z,100172.64
2022-08-19T10:03:00.314Z,100168.13
2022-08-19T10:05:48.591Z,100162.93
2022-08-19T10:08:20.612Z,100162.00
2022-08-19T10:10:49.867Z,100165.27
2022-08-19T10:13:24.585Z,100168.30
2022-08-19T10:15:54.224Z,100162.95
2022-08-19T10:18:25.529Z,100161.95
2022-08-19T10:21:14.703Z,100157.37
2022-08-19T10:23:46.267Z,100158.21
2022-08-19T10:26:17.844Z,100158.05
2022-08-19T10:28:47.732Z,100159.12
2022-08-19T10:31:20.640Z,100155.99
2022-08-19T10:34:10.097Z,100152.35
2022-08-19T10:36:56.142Z,100149.59
2022-08-19T10:39:24.487Z,100148.40
2022-08-19T10:41:58.739Z,100146.69
2022-08-19T10:44:32.051Z,100142.63
2022-08-19T10:47:01.040Z,100140.67
2022-08-19T10:49:29.048Z,100138.73
2022-08-19T10:52:18.645Z,100137.83
2022-08-19T10:55:08.557Z,100134.65
2022-08-19T10:57:59.259Z,100137.12
2022-08-19T11:00:25.911Z,100136.19
2022-08-19T11:02:53.644Z,100131.36
2022-08-19T11:05:24.221Z,100130.30
2022-08-19T11:07:53.117Z,100131.98
2022-08-19T11:10:22.235Z,100132.52
2022-08-19T11:12:54.100Z,100132.63
2022-08-19T11:15:22.443Z,100127.23
2022-08-19T11:17:50.439Z,100126.94
2022-08-19T11:20:18.284Z,100128.48
2022-08-19T11:22:46.327Z,100117.94
2022-08-19T11:25:15.528Z,100110.90
2022-08-19T11:27:44.775Z,100104.01
2022-08-19T11:30:14.510Z,100097.11
2022-08-19T11:32:48.615Z,100092.90
2022-08-19T11:35:17.524Z,100092.38
2022-08-19T11:37:45.168Z,100095.31
2022-08-19T11:40:13.200Z,100090.61
2022-08-19T11:42:57.192Z,100089.91
2022-08-19T11:45:27.251Z,100090.70
2022-08-19T11:47:55.593Z,100086.20
2022-08-19T11:50:25.637Z,100086.34
2022-08-19T11:52:56.268Z,100084.74
2022-08-19T11:55:24.667Z,100086.05
2022-08-19T11:57:52.371Z,100080.64
2022-08-19T12:00:20.479Z,100073.20
2022-08-19T12:02:48.108Z,100071.65
2022-08-19T12:05:15.886Z,100072.86
2022-08-19T12:07:44.714Z,100064.21
2022-08-19T12:10:12.581Z,100068.63
2022-08-19T12:12:43.559Z,100066.59
2022-08-19T12:15:13.096Z,100064.44
2022-08-19T12:17:42.692Z,100064.58
2022-08-19T12:20:12.570Z,100060.94
2022-08-19T12:22:43.903Z,100054.16
2022-08-19T12:25:12.856Z,100056.27
2022-08-19T12:27:42.721Z,100056.73
2022-08-19T12:30:14.408Z,100052.81
2022-08-19T12:32:42.489Z,100052.88
2022-08-19T12:35:11.657Z,100048.67
2022-08-19T12:37:40.016Z,100048.52
2022-08-19T12:40:08.765Z,100045.18
2022-08-19T12:42:36.571Z,100045.25
2022-08-19T12:45:04.907Z,100045.06
2022-08-19T12:47:34.305Z,100044.40
2022-08-19T12:50:09.648Z,100047.19
2022-08-19T12:52:38.200Z,100048.09
2022-08-19T12:55:08.023Z,100041.97
2022-08-19T12:57:36.805Z,100037.74
2022-08-19T13:00:12.832Z,100041.95
2022-08-19T13:02:42.923Z,100039.86
2022-08-19T13:05:13.135Z,100035.29
2022-08-19T13:07:42.071Z,100034.98
2022-08-19T13:10:12.930Z,100041.20
2022-08-19T13:12:42.100Z,100042.71
2022-08-19T13:15:11.429Z,100042.89
2022-08-19T13:17:40.361Z,100043.30
2022-08-19T13:20:10.172Z,100041.43
2022-08-19T13:22:38.702Z,100037.23
2022-08-19T13:25:07.920Z,100040.56
2022-08-19T13:27:37.152Z,100040.66
2022-08-19T13:30:25.693Z,100044.39
2022-08-19T13:33:12.010Z,100039.47
2022-08-19T13:36:01.780Z,100039.58
2022-08-19T13:38:31.696Z,100035.25
2022-08-19T13:41:10.079Z,100033.75
2022-08-19T13:43:40.049Z,100030.23
2022-08-19T13:46:11.597Z,100032.39
2022-08-19T13:48:39.302Z,100034.98
2022-08-19T13:51:07.537Z,100035.33
2022-08-19T13:53:35.217Z,100033.39
2022-08-19T13:56:06.973Z,100032.81
2022-08-19T13:58:35.332Z,100033.19
2022-08-19T14:01:03.209Z,100037.20
2022-08-19T14:03:31.925Z,100034.83
2022-08-19T14:05:59.685Z,100035.41
2022-08-19T14:08:29.277Z,100034.03
2022-08-19T14:10:57.022Z,100039.94
2022-08-19T14:13:25.597Z,100038.70
2022-08-19T14:15:54.170Z,100043.62
2022-08-19T14:18:22.333Z,100045.98
2022-08-19T14:20:55.013Z,100050.79
2022-08-19T14:23:23.325Z,100048.46
2022-08-19T14:25:51.041Z,100053.35
2022-08-19T14:28:18.822Z,100051.19
2022-08-19T14:30:46.692Z,100049.38
2022-08-19T14:33:15.270Z,100047.68
2022-08-19T14:35:46.059Z,100043.85
2022-08-19T14:38:24.638Z,100036.20
2022-08-19T14:41:18.446Z,100036.08
2022-08-19T14:43:49.371Z,100038.45
2022-08-19T14:46:21.590Z,100034.55
2022-08-19T14:48:51.725Z,100036.28
2022-08-19T14:51:22.039Z,100037.48
2022-08-19T14:53:50.950Z,100034.58
2022-08-19T14:56:24.022Z,100033.66
2022-08-19T14:58:52.853Z,100034.39
2022-08-19T15:01:23.180Z,100034.05
2022-08-19T15:03:53.936Z,100034.29
2022-08-19T15:06:24.319Z,100030.94
2022-08-19T15:08:54.602Z,100029.41
2022-08-19T15:11:26.581Z,100023.71
2022-08-19T15:13:58.317Z,100021.73
2022-08-19T15:16:28.814Z,100015.95
2022-08-19T15:19:00.030Z,100017.27
2022-08-19T15:21:30.533Z,100022.48
2022-08-19T15:23:58.954Z,100024.87
2022-08-19T15:26:28.656Z,100025.34
2022-08-19T15:28:57.143Z,100026.03
2022-08-19T15:31:28.537Z,100022.52
2022-08-19T15:34:00.809Z,100019.34
2022-08-19T15:36:28.884Z,100019.77
2022-08-19T15:38:57.412Z,100019.87
2022-08-19T15:41:31.181Z,100021.97
2022-08-19T15:44:04.455Z,100020.95
2022-08-19T15:46:34.020Z,100019.40
2022-08-19T15:49:01.872Z,100018.77
2022-08-19T15:51:32.453Z,100012.13
2022-08-19T15:54:00.817Z,100012.44
2022-08-19T15:56:57.965Z,100010.98
2022-08-19T15:59:47.475Z,100004.13
2022-08-19T16:02:37.215Z,100002.04
2022-08-19T16:05:28.051Z,99995.77
2022-08-19T16:07:57.156Z,100001.80
2022-08-19T16:10:27.022Z,100002.35
2022-08-19T16:12:58.191Z,99999.05
2022-08-19T16:15:28.049Z,100001.48
2022-08-19T16:17:57.657Z,99999.42
2022-08-19T16:20:28.103Z,99995.98
2022-08-19T16:22:58.618Z,99991.96
2022-08-19T16:25:29.293Z,99989.02
2022-08-19T16:28:07.828Z,99994.84
2022-08-19T16:30:38.786Z,99995.59
2022-08-19T16:33:07.865Z,99995.89
2022-08-19T16:35:35.609Z,99993.56
2022-08-19T16:38:03.665Z,99996.14
2022-08-19T16:40:31.397Z,99994.13
2022-08-19T16:43:00.103Z,99994.33
2022-08-19T16:45:27.847Z,99994.80
2022-08-19T16:47:57.694Z,99991.96
2022-08-19T16:50:46.215Z,99993.59
2022-08-19T16:53:18.102Z,99988.44
2022-08-19T16:55:50.959Z,99991.09
2022-08-19T16:58:19.162Z,99990.30
2022-08-19T17:00:48.625Z,99989.85
2022-08-19T17:03:17.916Z,99993.33
2022-08-19T17:05:47.925Z,99993.98
2022-08-19T17:08:19.742Z,99989.05
2022-08-19T17:11:16.568Z,99989.63
2022-08-19T17:13:38.566Z,99985.40
2022-08-19T17:16:06.974Z,99985.73
2022-08-19T17:18:34.671Z,99984.29
2022-08-19T17:21:02.826Z,99989.80
2022-08-19T17:23:42.710Z,99996.79
2022-08-19T17:26:16.793Z,100000.02
2022-08-19T17:28:51.614Z,100008.64
2022-08-19T17:31:23.294Z,100008.71
2022-08-19T17:33:51.646Z,100018.69
2022-08-19T17:36:23.987Z,100027.48
2022-08-19T17:38:55.355Z,100037.96
2022-08-19T17:41:28.021Z,100042.59
2022-08-19T17:43:56.584Z,100047.10
2022-08-19T17:46:25.573Z,100048.20
2022-08-19T17:48:57.239Z,100056.95
2022-08-19T17:51:40.794Z,100055.94
2022-08-19T17:54:14.459Z,100063.45
2022-08-19T17:56:43.638Z,100064.55
2022-08-19T17:59:13.892Z,100067.77
2022-08-19T18:01:53.442Z,100072.57
2022-08-19T18:04:25.444Z,100076.56
2022-08-19T18:06:55.598Z,100081.98
2022-08-19T18:09:30.091Z,100077.27
2022-08-19T18:12:10.886Z,100071.58
2022-08-19T18:14:39.928Z,100068.65
2022-08-19T18:17:13.535Z,100065.06
2022-08-19T18:19:43.966Z,100071.48
2022-08-19T18:22:22.540Z,100074.95
2022-08-19T18:24:51.154Z,100076.17
2022-08-19T18:27:19.055Z,100074.56
2022-08-19T18:29:47.115Z,100071.53
2022-08-19T18:32:17.325Z,100061.02
2022-08-19T18:34:53.434Z,100056.18
2022-08-19T18:37:22.919Z,100055.63
2022-08-19T18:40:09.425Z,100058.17
2022-08-19T18:43:04.094Z,100063.04
2022-08-19T18:45:50.502Z,100061.63
2022-08-19T18:48:37.167Z,100053.67
2022-08-19T18:51:05.123Z,100053.55
2022-08-19T18:53:37.986Z,100051.30
2022-08-19T18:56:08.096Z,100052.30
2022-08-19T18:58:38.219Z,100051.83
2022-08-19T19:01:11.840Z,100052.51
2022-08-19T19:03:45.768Z,100052.79
2022-08-19T19:06:19.192Z,100048.69
2022-08-19T19:08:48.412Z,100051.29
2022-08-19T19:11:24.683Z,100048.95
2022-08-19T19:13:53.001Z,100055.99
2022-08-19T19:16:24.402Z,100059.80
2022-08-19T19:18:52.903Z,100064.35
2022-08-19T19:21:25.424Z,100067.05
2022-08-19T19:23:54.998Z,100069.92
2022-08-19T19:26:23.686Z,100071.73
2022-08-19T19:28:51.688Z,100075.92
2022-08-19T19:31:26.885Z,100080.15
2022-08-19T19:33:56.426Z,100079.75
2022-08-19T19:36:24.239Z,100081.69
2022-08-19T19:38:53.196Z,100081.36
2022-08-19T19:41:24.254Z,100079.42
2022-08-19T19:44:29.786Z,100082.17
2022-08-19T19:46:47.130Z,100082.97
2022-08-19T19:49:15.683Z,100085.17
2022-08-19T19:51:43.643Z,100087.81
2022-08-19T19:54:13.844Z,100092.41
2022-08-19T19:56:45.526Z,100090.17
2022-08-19T19:59:13.351Z,100081.89
2022-08-19T20:01:47.038Z,100077.95
2022-08-19T20:04:16.752Z,100073.86
2022-08-19T20:06:47.544Z,100074.27
2022-08-19T20:09:19.714Z,100074.45
2022-08-19T20:11:54.172Z,100072.46
2022-08-19T20:14:28.363Z,100076.42
2022-08-19T20:16:56.833Z,100079.27
2022-08-19T20:19:31.182Z,100084.43
2022-08-19T20:21:59.048Z,100090.25
2022-08-19T20:24:32.725Z,100092.80
2022-08-19T20:27:01.161Z,100096.64
2022-08-19T20:29:39.598Z,100097.83
2022-08-19T20:32:10.478Z,100106.55
2022-08-19T20:34:40.719Z,100112.52
2022-08-19T20:37:11.463Z,100117.74
2022-08-19T20:39:39.451Z,100122.95
2022-08-19T20:42:07.521Z,100123.68
2022-08-19T20:44:35.613Z,100122.98
2022-08-19T20:47:04.154Z,100114.52
2022-08-19T20:49:32.527Z,100107.16
2022-08-19T20:52:00.531Z,100105.38
2022-08-19T20:54:28.565Z,100107.05
2022-08-19T20:56:57.096Z,100111.88
2022-08-19T20:59:25.852Z,100111.11
2022-08-19T21:01:53.730Z,100113.30
2022-08-19T21:04:22.553Z,100118.58
2022-08-19T21:06:51.063Z,100116.77
2022-08-19T21:09:18.971Z,100116.65
2022-08-19T21:11:47.200Z,100114.63
2022-08-19T21:14:14.928Z,100112.25
2022-08-19T21:16:42.784Z,100110.77
2022-08-19T21:19:10.781Z,100104.21
2022-08-19T21:21:38.868Z,100104.05
2022-08-19T21:24:06.790Z,100105.51
2022-08-19T21:26:34.633Z,100105.43
2022-08-19T21:29:02.312Z,100102.58
2022-08-19T21:31:30.101Z,100101.02
2022-08-19T21:33:58.112Z,100098.58
2022-08-19T21:36:25.800Z,100095.55
2022-08-19T21:38:53.559Z,100094.75
2022-08-19T21:41:22.350Z,100094.23
2022-08-19T21:43:50.088Z,100095.63
2022-08-19T21:46:17.920Z,100095.94
2022-08-19T21:48:45.713Z,100100.08
2022-08-19T21:51:13.752Z,100098.64
2022-08-19T21:53:41.498Z,100095.81
2022-08-19T21:56:12.387Z,100095.96
2022-08-19T21:58:41.239Z,100093.60
2022-08-19T22:01:09.288Z,100097.22
2022-08-19T22:03:38.857Z,100096.98
2022-08-19T22:06:08.503Z,100103.09
2022-08-19T22:08:36.683Z,100104.66
2022-08-19T22:11:04.739Z,100105.39
2022-08-19T22:13:40.147Z,100106.62
2022-08-19T22:16:09.671Z,100104.56
2022-08-19T22:18:37.487Z,100104.92
2022-08-19T22:21:11.355Z,100105.60
2022-08-19T22:23:41.904Z,100116.22
2022-08-19T22:26:09.735Z,100120.19
2022-08-19T22:28:38.476Z,100125.69
2022-08-19T22:31:08.467Z,100125.18
2022-08-19T22:33:37.519Z,100126.92
2022-08-19T22:36:09.786Z,100131.68
2022-08-19T22:38:38.419Z,100130.32
2022-08-19T22:41:07.942Z,100127.71
2022-08-19T22:43:37.672Z,100131.95
2022-08-19T22:46:16.959Z,100130.26
2022-08-19T22:48:46.726Z,100132.89
2022-08-19T22:51:34.613Z,100143.98
2022-08-19T22:54:03.093Z,100182.69
2022-08-19T22:56:31.104Z,100201.66
2022-08-19T22:58:59.095Z,100202.01
2022-08-19T23:01:30.516Z,100174.34
2022-08-19T23:03:59.768Z,100134.83
2022-08-19T23:06:33.747Z,100167.65
2022-08-19T23:09:07.282Z,100187.03
2022-08-19T23:11:41.706Z,100166.48
2022-08-19T23:14:11.500Z,100156.00
2022-08-19T23:16:41.542Z,100174.84
2022-08-19T23:19:10.439Z,100172.98
2022-08-19T23:21:42.818Z,100181.88
2022-08-19T23:24:11.401Z,100193.90
2022-08-19T23:26:59.919Z,100196.21
2022-08-19T23:29:45.985Z,100192.52
2022-08-19T23:32:17.595Z,100195.25
2022-08-19T23:34:45.940Z,100199.07
2022-08-19T23:37:14.059Z,100204.75
2022-08-19T23:39:41.808Z,100206.74
2022-08-19T23:42:11.592Z,100199.11
2022-08-19T23:44:52.280Z,100197.10
2022-08-19T23:47:21.546Z,100197.89
2022-08-19T23:49:49.561Z,100200.38
2022-08-19T23:52:17.348Z,100203.65
2022-08-19T23:54:45.042Z,100201.17
2022-08-19T23:57:14.251Z,100193.29
2022-08-19T23:59:45.578Z,100190.02
